createdAt,value
2017-09-23T00:00:55.706Z,85.80
2017-09-23T00:03:23.454Z,85.90
2017-09-23T00:05:51.104Z,85.60
2017-09-23T00:08:18.845Z,85.40
2017-09-23T00:10:46.559Z,85.50
2017-09-23T00:13:14.215Z,85.50
2017-09-23T00:15:41.980Z,85.40
2017-09-23T00:18:09.758Z,85.50
2017-09-23T00:20:37.888Z,85.60
2017-09-23T00:23:05.639Z,85.50
2017-09-23T00:25:33.491Z,85.30
2017-09-23T00:28:01.237Z,85.20
2017-09-23T00:30:28.986Z,85.00
2017-09-23T00:32:56.795Z,85.00
2017-09-23T00:35:24.580Z,85.20
2017-09-23T00:37:52.327Z,85.40
2017-09-23T00:40:20.074Z,85.70
2017-09-23T00:42:47.747Z,86.10
2017-09-23T00:45:15.803Z,85.90
2017-09-23T00:47:44.033Z,85.90
2017-09-23T00:50:11.888Z,85.90
2017-09-23T00:52:39.579Z,86.40
2017-09-23T00:55:07.478Z,86.30
2017-09-23T00:57:35.194Z,86.00
2017-09-23T01:00:02.889Z,86.10
2017-09-23T01:02:30.586Z,85.80
2017-09-23T01:04:58.370Z,86.00
2017-09-23T01:07:26.114Z,86.10
2017-09-23T01:09:53.915Z,85.80
2017-09-23T01:12:21.608Z,85.90
2017-09-23T01:14:49.356Z,85.90
2017-09-23T01:17:17.060Z,85.90
2017-09-23T01:19:44.779Z,86.10
2017-09-23T01:22:13.008Z,86.30
2017-09-23T01:24:40.782Z,86.30
2017-09-23T01:27:08.912Z,86.70
2017-09-23T01:29:36.635Z,86.60
2017-09-23T01:32:04.383Z,87.00
2017-09-23T01:34:32.156Z,87.30
2017-09-23T01:36:59.802Z,87.20
2017-09-23T01:39:27.651Z,87.70
2017-09-23T01:41:55.397Z,88.10
2017-09-23T01:44:23.145Z,88.60
2017-09-23T01:46:50.993Z,89.00
2017-09-23T01:49:18.741Z,89.30
2017-09-23T01:51:46.487Z,89.10
2017-09-23T01:54:14.179Z,88.80
2017-09-23T01:56:41.880Z,87.90
2017-09-23T01:59:09.627Z,87.40
2017-09-23T02:01:37.460Z,87.20
2017-09-23T02:04:05.124Z,87.20
2017-09-23T02:06:32.872Z,87.20
2017-09-23T02:09:00.621Z,87.00
2017-09-23T02:11:28.367Z,87.00
2017-09-23T02:13:56.114Z,87.80
2017-09-23T02:16:23.963Z,87.70
2017-09-23T02:18:51.710Z,87.80
2017-09-23T02:21:19.457Z,88.30
2017-09-23T02:23:47.205Z,88.50
2017-09-23T02:26:14.907Z,88.70
2017-09-23T02:28:42.679Z,88.60
2017-09-23T02:31:10.426Z,88.40
2017-09-23T02:33:38.090Z,88.40
2017-09-23T02:36:05.739Z,88.50
2017-09-23T02:38:33.429Z,88.30
2017-09-23T02:41:01.130Z,88.40
2017-09-23T02:43:28.879Z,88.40
2017-09-23T02:45:56.610Z,88.40
2017-09-23T02:48:24.263Z,88.10
2017-09-23T02:50:52.019Z,88.20
2017-09-23T02:53:19.730Z,87.90
2017-09-23T02:55:47.387Z,88.10
2017-09-23T02:58:15.053Z,88.10
2017-09-23T03:00:42.800Z,88.40
2017-09-23T03:03:10.444Z,88.40
2017-09-23T03:05:38.091Z,88.50
2017-09-23T03:08:05.839Z,88.30
2017-09-23T03:10:33.483Z,88.40
2017-09-23T03:13:01.232Z,88.50
2017-09-23T03:15:28.939Z,88.40
2017-09-23T03:17:56.624Z,88.20
2017-09-23T03:20:24.370Z,88.40
2017-09-23T03:22:52.083Z,88.30
2017-09-23T03:25:19.762Z,88.20
2017-09-23T03:27:47.518Z,87.90
2017-09-23T03:30:15.258Z,87.80
2017-09-23T03:32:43.925Z,87.80
2017-09-23T03:35:11.672Z,87.90
2017-09-23T03:37:39.367Z,88.00
2017-09-23T03:40:07.035Z,88.50
2017-09-23T03:42:34.917Z,88.70
2017-09-23T03:45:02.766Z,88.70
2017-09-23T03:47:30.418Z,88.90
2017-09-23T03:49:58.067Z,88.90
2017-09-23T03:52:25.927Z,88.90
2017-09-23T03:54:53.967Z,89.10
2017-09-23T03:57:21.707Z,89.10
2017-09-23T03:59:49.418Z,89.10
2017-09-23T04:02:17.099Z,89.10
2017-09-23T04:04:44.746Z,89.10
2017-09-23T04:07:12.435Z,89.30
2017-09-23T04:09:40.136Z,89.40
2017-09-23T04:12:07.796Z,89.70
2017-09-23T04:14:35.506Z,89.80
2017-09-23T04:17:03.176Z,89.70
2017-09-23T04:19:30.923Z,89.60
2017-09-23T04:21:58.773Z,89.50
2017-09-23T04:24:26.415Z,89.60
2017-09-23T04:26:54.166Z,89.40
2017-09-23T04:29:21.871Z,89.40
2017-09-23T04:31:49.556Z,89.40
2017-09-23T04:34:17.303Z,89.10
2017-09-23T04:36:45.050Z,88.90
2017-09-23T04:39:12.798Z,88.90
2017-09-23T04:41:40.448Z,89.00
2017-09-23T04:44:08.190Z,89.20
2017-09-23T04:46:35.938Z,89.10
2017-09-23T04:49:03.581Z,89.10
2017-09-23T04:51:31.274Z,88.90
2017-09-23T04:53:58.977Z,88.90
2017-09-23T04:56:26.724Z,88.60
2017-09-23T04:58:54.499Z,88.90
2017-09-23T05:01:22.547Z,88.60
2017-09-23T05:03:50.683Z,88.60
2017-09-23T05:06:18.633Z,88.70
2017-09-23T05:08:46.346Z,88.90
2017-09-23T05:11:13.995Z,88.90
2017-09-23T05:13:41.800Z,89.10
2017-09-23T05:16:09.844Z,88.90
2017-09-23T05:18:37.984Z,88.50
2017-09-23T05:21:05.839Z,88.50
2017-09-23T05:23:33.584Z,88.10
2017-09-23T05:26:01.228Z,88.10
2017-09-23T05:28:29.062Z,88.00
2017-09-23T05:30:56.724Z,88.40
2017-09-23T05:33:24.371Z,88.40
2017-09-23T05:35:52.070Z,88.50
2017-09-23T05:38:19.760Z,88.50
2017-09-23T05:40:47.507Z,88.40
2017-09-23T05:43:15.254Z,88.40
2017-09-23T05:45:42.902Z,88.40
2017-09-23T05:48:10.646Z,88.20
2017-09-23T05:50:38.393Z,87.90
2017-09-23T05:53:06.060Z,88.10
2017-09-23T05:55:34.198Z,88.10
2017-09-23T05:58:01.945Z,88.10
2017-09-23T06:00:29.692Z,88.20
2017-09-23T06:02:57.439Z,88.00
2017-09-23T06:05:25.138Z,87.90
2017-09-23T06:07:52.831Z,87.90
2017-09-23T06:10:20.475Z,87.70
2017-09-23T06:12:48.227Z,87.50
2017-09-23T06:15:15.971Z,87.30
2017-09-23T06:17:43.717Z,87.20
2017-09-23T06:20:11.567Z,87.20
2017-09-23T06:22:39.214Z,87.10
2017-09-23T06:25:06.959Z,87.00
2017-09-23T06:27:34.914Z,87.00
2017-09-23T06:30:02.662Z,86.50
2017-09-23T06:32:30.411Z,86.40
2017-09-23T06:34:58.127Z,86.40
2017-09-23T06:37:25.791Z,86.70
2017-09-23T06:39:53.547Z,87.00
2017-09-23T06:42:21.294Z,86.40
2017-09-23T06:44:48.958Z,85.90
2017-09-23T06:47:17.405Z,85.10
2017-09-23T06:49:45.151Z,85.10
2017-09-23T06:52:13.819Z,84.40
2017-09-23T06:54:41.475Z,83.90
2017-09-23T06:57:09.518Z,84.10
2017-09-23T06:59:37.265Z,84.30
2017-09-23T07:02:05.015Z,84.40
2017-09-23T07:04:33.297Z,85.10
2017-09-23T07:07:01.602Z,84.70
2017-09-23T07:09:29.590Z,85.00
2017-09-23T07:11:57.337Z,85.00
2017-09-23T07:14:25.007Z,84.70
2017-09-23T07:16:53.137Z,81.50
2017-09-23T07:19:20.885Z,81.60
2017-09-23T07:21:48.630Z,81.70
2017-09-23T07:24:16.279Z,80.80
2017-09-23T07:26:44.126Z,80.30
2017-09-23T07:29:11.872Z,80.90
2017-09-23T07:31:39.619Z,80.30
2017-09-23T07:34:07.366Z,79.80
2017-09-23T07:36:35.116Z,80.00
2017-09-23T07:39:02.864Z,79.70
2017-09-23T07:41:30.611Z,79.60
2017-09-23T07:43:58.366Z,80.10
2017-09-23T07:46:26.105Z,79.80
2017-09-23T07:48:53.903Z,80.10
2017-09-23T07:51:21.598Z,80.30
2017-09-23T07:53:49.247Z,80.10
2017-09-23T07:56:16.939Z,80.00
2017-09-23T07:58:44.579Z,80.30
2017-09-23T08:01:12.283Z,80.30
2017-09-23T08:03:39.990Z,80.00
2017-09-23T08:06:07.655Z,80.00
2017-09-23T08:08:35.445Z,77.80
2017-09-23T08:11:03.272Z,78.30
2017-09-23T08:13:31.020Z,75.70
2017-09-23T08:15:58.766Z,76.10
2017-09-23T08:18:26.515Z,75.90
2017-09-23T08:20:54.195Z,75.10
2017-09-23T08:23:22.315Z,76.40
2017-09-23T08:25:50.062Z,76.50
2017-09-23T08:28:17.809Z,76.20
2017-09-23T08:30:45.557Z,76.40
2017-09-23T08:33:13.304Z,76.80
2017-09-23T08:35:41.051Z,76.10
2017-09-23T08:38:08.799Z,76.30
2017-09-23T08:40:36.516Z,77.20
2017-09-23T08:43:04.193Z,77.40
2017-09-23T08:45:31.943Z,77.80
2017-09-23T08:47:59.652Z,78.30
2017-09-23T08:50:27.295Z,77.50
2017-09-23T08:52:55.003Z,76.90
2017-09-23T08:55:23.133Z,76.40
2017-09-23T08:57:50.880Z,76.40
2017-09-23T09:00:18.628Z,75.30
2017-09-23T09:02:46.378Z,75.40
2017-09-23T09:05:14.032Z,75.50
2017-09-23T09:07:41.768Z,74.90
2017-09-23T09:10:09.466Z,76.00
2017-09-23T09:12:37.111Z,75.00
2017-09-23T09:15:04.754Z,73.90
2017-09-23T09:17:32.886Z,73.50
2017-09-23T09:20:01.018Z,73.40
2017-09-23T09:22:28.663Z,73.40
2017-09-23T09:24:56.471Z,73.40
2017-09-23T09:27:24.157Z,73.50
2017-09-23T09:29:51.905Z,72.60
2017-09-23T09:32:19.652Z,74.30
2017-09-23T09:34:47.303Z,75.20
2017-09-23T09:37:15.044Z,74.60
2017-09-23T09:39:42.790Z,73.70
2017-09-23T09:42:10.537Z,74.40
2017-09-23T09:44:38.285Z,73.10
2017-09-23T09:47:05.994Z,72.90
2017-09-23T09:49:33.691Z,71.10
2017-09-23T09:52:01.426Z,70.30
2017-09-23T09:54:29.582Z,70.90
2017-09-23T09:56:57.432Z,71.80
2017-09-23T09:59:25.180Z,72.20
2017-09-23T10:01:52.879Z,72.90
2017-09-23T10:04:20.556Z,73.50
2017-09-23T10:06:48.319Z,74.00
2017-09-23T10:09:16.170Z,74.10
2017-09-23T10:11:43.895Z,73.90
2017-09-23T10:14:11.870Z,73.10
2017-09-23T10:16:39.820Z,72.50
2017-09-23T10:19:07.566Z,73.20
2017-09-23T10:21:35.271Z,72.90
2017-09-23T10:24:03.027Z,72.20
2017-09-23T10:26:30.811Z,72.30
2017-09-23T10:28:58.473Z,70.80
2017-09-23T10:31:26.211Z,70.60
2017-09-23T10:33:53.950Z,70.90
2017-09-23T10:36:21.697Z,70.30
2017-09-23T10:38:49.445Z,71.10
2017-09-23T10:41:17.190Z,70.60
2017-09-23T10:43:44.939Z,70.90
2017-09-23T10:46:12.686Z,71.20
2017-09-23T10:48:40.432Z,70.20
2017-09-23T10:51:08.087Z,70.00
2017-09-23T10:53:35.799Z,69.80
2017-09-23T10:56:03.574Z,69.20
2017-09-23T10:58:31.322Z,68.60
2017-09-23T11:00:59.069Z,66.80
2017-09-23T11:03:26.816Z,66.70
2017-09-23T11:05:54.665Z,66.30
2017-09-23T11:08:22.475Z,66.70
2017-09-23T11:10:50.160Z,67.70
2017-09-23T11:13:17.907Z,65.50
2017-09-23T11:15:45.751Z,65.00
2017-09-23T11:18:13.506Z,63.90
2017-09-23T11:20:41.252Z,65.60
2017-09-23T11:23:08.950Z,65.80
2017-09-23T11:25:36.642Z,65.40
2017-09-23T11:28:04.295Z,67.20
2017-09-23T11:30:32.140Z,66.00
2017-09-23T11:32:59.888Z,66.00
2017-09-23T11:35:27.635Z,65.70
2017-09-23T11:37:55.385Z,63.70
2017-09-23T11:40:23.035Z,63.40
2017-09-23T11:42:50.688Z,63.00
2017-09-23T11:45:18.403Z,62.50
2017-09-23T11:47:46.063Z,61.60
2017-09-23T11:50:13.810Z,61.50
2017-09-23T11:52:41.500Z,62.20
2017-09-23T11:55:09.183Z,60.30
2017-09-23T11:57:36.839Z,61.80
2017-09-23T12:00:04.560Z,61.20
2017-09-23T12:02:32.206Z,62.20
2017-09-23T12:04:59.887Z,60.90
2017-09-23T12:07:27.633Z,60.20
2017-09-23T12:09:55.381Z,59.20
2017-09-23T12:12:23.128Z,59.60
2017-09-23T12:14:50.876Z,58.30
2017-09-23T12:17:18.622Z,58.60
2017-09-23T12:19:46.275Z,57.00
2017-09-23T12:22:14.013Z,58.50
2017-09-23T12:24:41.761Z,58.50
2017-09-23T12:27:09.510Z,58.60
2017-09-23T12:29:37.256Z,58.00
2017-09-23T12:32:04.911Z,58.10
2017-09-23T12:34:32.578Z,57.30
2017-09-23T12:37:00.675Z,56.40
2017-09-23T12:39:28.453Z,56.40
2017-09-23T12:41:56.199Z,56.70
2017-09-23T12:44:24.048Z,55.70
2017-09-23T12:46:51.798Z,56.10
2017-09-23T12:49:19.453Z,56.10
2017-09-23T12:51:47.152Z,56.90
2017-09-23T12:54:14.813Z,56.10
2017-09-23T12:56:42.459Z,55.90
2017-09-23T12:59:10.224Z,56.60
2017-09-23T13:01:37.916Z,57.70
2017-09-23T13:04:05.966Z,57.20
2017-09-23T13:06:34.083Z,58.50
2017-09-23T13:09:01.831Z,58.50
2017-09-23T13:11:29.578Z,58.50
2017-09-23T13:13:57.279Z,58.40
2017-09-23T13:16:24.928Z,57.60
2017-09-23T13:18:52.584Z,56.00
2017-09-23T13:21:20.366Z,56.50
2017-09-23T13:23:48.010Z,57.00
2017-09-23T13:26:15.753Z,57.50
2017-09-23T13:28:43.471Z,57.00
2017-09-23T13:31:11.145Z,55.90
2017-09-23T13:33:38.794Z,57.20
2017-09-23T13:36:06.537Z,58.30
2017-09-23T13:38:34.287Z,59.10
2017-09-23T13:41:01.947Z,59.00
2017-09-23T13:43:29.781Z,60.00
2017-09-23T13:45:57.938Z,60.40
2017-09-23T13:48:25.686Z,59.30
2017-09-23T13:50:53.415Z,60.20
2017-09-23T13:53:21.063Z,57.00
2017-09-23T13:55:48.744Z,58.30
2017-09-23T13:58:16.519Z,57.80
2017-09-23T14:00:44.217Z,58.40
2017-09-23T14:03:11.875Z,58.30
2017-09-23T14:05:39.578Z,58.10
2017-09-23T14:08:07.252Z,57.10
2017-09-23T14:10:36.024Z,58.70
2017-09-23T14:13:03.775Z,56.80
2017-09-23T14:15:31.521Z,56.60
2017-09-23T14:17:59.269Z,58.00
2017-09-23T14:20:26.974Z,60.30
2017-09-23T14:22:54.635Z,60.90
2017-09-23T14:25:22.286Z,60.60
2017-09-23T14:27:50.053Z,60.90
2017-09-23T14:30:17.706Z,60.20
2017-09-23T14:32:45.444Z,61.40
2017-09-23T14:35:13.192Z,62.70
2017-09-23T14:37:40.848Z,63.80
2017-09-23T14:40:08.534Z,64.10
2017-09-23T14:42:36.336Z,64.10
2017-09-23T14:45:03.991Z,65.80
2017-09-23T14:47:31.643Z,65.70
2017-09-23T14:49:59.369Z,66.60
2017-09-23T14:52:27.059Z,66.40
2017-09-23T14:54:54.703Z,66.90
2017-09-23T14:57:22.807Z,68.30
2017-09-23T14:59:50.506Z,68.20
2017-09-23T15:02:18.181Z,68.80
2017-09-23T15:04:45.897Z,69.10
2017-09-23T15:07:13.601Z,69.20
2017-09-23T15:09:41.347Z,69.50
2017-09-23T15:12:09.147Z,68.30
2017-09-23T15:14:36.800Z,67.90
2017-09-23T15:17:04.490Z,68.10
2017-09-23T15:19:32.338Z,68.40
2017-09-23T15:21:59.991Z,68.70
2017-09-23T15:24:27.643Z,68.60
2017-09-23T15:26:55.375Z,68.50
2017-09-23T15:29:23.051Z,69.10
2017-09-23T15:31:50.704Z,69.50
2017-09-23T15:34:18.822Z,69.80
2017-09-23T15:36:46.579Z,69.80
2017-09-23T15:39:14.317Z,70.30
2017-09-23T15:41:42.020Z,71.20
2017-09-23T15:44:09.708Z,71.00
2017-09-23T15:46:37.366Z,72.00
2017-09-23T15:49:05.066Z,71.60
2017-09-23T15:51:32.715Z,71.30
2017-09-23T15:54:00.393Z,72.10
2017-09-23T15:56:28.243Z,72.40
2017-09-23T15:58:55.990Z,72.40
2017-09-23T16:01:23.636Z,72.30
2017-09-23T16:03:51.383Z,72.00
2017-09-23T16:06:19.132Z,71.60
2017-09-23T16:08:46.876Z,72.50
2017-09-23T16:11:14.625Z,72.20
2017-09-23T16:13:42.283Z,72.70
2017-09-23T16:16:10.015Z,73.00
2017-09-23T16:18:37.808Z,72.80
2017-09-23T16:21:05.923Z,73.90
2017-09-23T16:23:33.668Z,73.90
2017-09-23T16:26:01.416Z,74.50
2017-09-23T16:28:29.164Z,74.40
2017-09-23T16:30:56.827Z,74.80
2017-09-23T16:33:24.513Z,74.20
2017-09-23T16:35:52.200Z,74.00
2017-09-23T16:38:20.458Z,74.20
2017-09-23T16:40:48.411Z,74.40
2017-09-23T16:43:16.158Z,74.40
2017-09-23T16:45:43.905Z,74.30
2017-09-23T16:48:11.625Z,74.60
2017-09-23T16:50:39.307Z,74.50
2017-09-23T16:53:06.968Z,74.90
2017-09-23T16:55:35.204Z,74.90
2017-09-23T16:58:02.868Z,74.90
2017-09-23T17:00:30.515Z,74.90
2017-09-23T17:02:58.240Z,75.00
2017-09-23T17:05:25.989Z,75.60
2017-09-23T17:07:53.735Z,75.90
2017-09-23T17:10:21.483Z,75.60
2017-09-23T17:12:49.230Z,76.40
2017-09-23T17:15:16.977Z,76.70
2017-09-23T17:17:44.724Z,76.70
2017-09-23T17:20:12.471Z,77.00
2017-09-23T17:22:40.219Z,77.20
2017-09-23T17:25:07.965Z,77.70
2017-09-23T17:27:35.623Z,77.70
2017-09-23T17:30:03.360Z,78.00
2017-09-23T17:32:31.108Z,78.30
2017-09-23T17:34:58.854Z,78.70
2017-09-23T17:37:26.523Z,78.80
2017-09-23T17:39:54.630Z,79.00
2017-09-23T17:42:22.284Z,79.00
2017-09-23T17:44:50.048Z,78.90
2017-09-23T17:47:17.759Z,79.30
2017-09-23T17:49:45.420Z,79.30
2017-09-23T17:52:13.482Z,79.00
2017-09-23T17:54:41.343Z,78.90
2017-09-23T17:57:09.016Z,78.60
2017-09-23T17:59:37.066Z,78.10
2017-09-23T18:02:04.784Z,78.00
2017-09-23T18:04:32.540Z,77.70
2017-09-23T18:07:00.287Z,77.80
2017-09-23T18:09:28.034Z,78.00
2017-09-23T18:11:55.788Z,78.00
2017-09-23T18:14:23.528Z,78.00
2017-09-23T18:16:51.244Z,78.20
2017-09-23T18:19:18.920Z,77.60
2017-09-23T18:21:46.575Z,77.60
2017-09-23T18:24:14.311Z,77.50
2017-09-23T18:26:42.059Z,77.60
2017-09-23T18:29:09.806Z,77.70
2017-09-23T18:31:37.655Z,77.80
2017-09-23T18:34:05.406Z,78.10
2017-09-23T18:36:33.063Z,78.00
2017-09-23T18:39:00.798Z,78.40
2017-09-23T18:41:28.545Z,78.20
2017-09-23T18:43:56.207Z,78.20
2017-09-23T18:46:24.039Z,77.70
2017-09-23T18:48:51.786Z,78.00
2017-09-23T18:51:19.534Z,77.80
2017-09-23T18:53:47.674Z,77.80
2017-09-23T18:56:15.440Z,77.80
2017-09-23T18:58:43.184Z,77.90
2017-09-23T19:01:10.951Z,77.90
2017-09-23T19:03:38.623Z,78.10
2017-09-23T19:06:06.299Z,78.90
2017-09-23T19:08:34.074Z,78.80
2017-09-23T19:11:01.767Z,79.20
2017-09-23T19:13:29.567Z,79.60
2017-09-23T19:15:57.291Z,79.40
2017-09-23T19:18:25.062Z,79.90
2017-09-23T19:20:52.814Z,80.00
2017-09-23T19:23:20.606Z,80.50
2017-09-23T19:25:48.406Z,80.40
2017-09-23T19:28:16.972Z,80.50
2017-09-23T19:30:45.235Z,80.40
2017-09-23T19:33:12.978Z,80.60
2017-09-23T19:35:41.398Z,80.70
2017-09-23T19:38:09.192Z,80.90
2017-09-23T19:40:37.046Z,80.60
2017-09-23T19:43:05.132Z,80.80
2017-09-23T19:45:33.362Z,81.30
2017-09-23T19:48:01.149Z,81.30
2017-09-23T19:50:28.850Z,81.40
2017-09-23T19:52:56.563Z,82.00
2017-09-23T19:55:24.230Z,82.10
2017-09-23T19:57:51.992Z,82.50
2017-09-23T20:00:20.195Z,82.60
2017-09-23T20:02:47.882Z,82.40
2017-09-23T20:05:15.643Z,82.50
2017-09-23T20:07:43.351Z,82.50
2017-09-23T20:10:11.034Z,82.40
2017-09-23T20:12:38.782Z,82.30
2017-09-23T20:15:06.631Z,82.70
2017-09-23T20:17:34.378Z,82.90
2017-09-23T20:20:02.126Z,83.10
2017-09-23T20:22:29.883Z,83.30
2017-09-23T20:24:58.530Z,82.70
2017-09-23T20:27:26.290Z,82.00
2017-09-23T20:29:55.984Z,82.10
2017-09-23T20:32:23.731Z,82.30
2017-09-23T20:34:51.415Z,82.50
2017-09-23T20:37:19.226Z,82.50
2017-09-23T20:39:46.974Z,82.50
2017-09-23T20:42:14.720Z,82.60
2017-09-23T20:44:42.422Z,82.60
2017-09-23T20:47:10.421Z,82.50
2017-09-23T20:49:38.124Z,82.60
2017-09-23T20:52:05.856Z,82.90
2017-09-23T20:54:33.557Z,83.00
2017-09-23T20:57:01.263Z,82.90
2017-09-23T20:59:29.052Z,82.40
2017-09-23T21:01:56.733Z,82.30
2017-09-23T21:04:24.410Z,82.10
2017-09-23T21:06:52.214Z,82.10
2017-09-23T21:09:20.266Z,83.40
2017-09-23T21:11:47.924Z,83.40
2017-09-23T21:14:16.051Z,83.70
2017-09-23T21:16:43.796Z,83.70
2017-09-23T21:19:11.446Z,83.80
2017-09-23T21:21:39.251Z,83.40
2017-09-23T21:24:06.918Z,83.80
2017-09-23T21:26:34.581Z,83.50
2017-09-23T21:29:02.303Z,83.30
2017-09-23T21:31:29.955Z,83.20
2017-09-23T21:33:57.919Z,83.20
2017-09-23T21:36:25.777Z,83.40
2017-09-23T21:38:53.524Z,83.40
2017-09-23T21:41:21.270Z,83.70
2017-09-23T21:43:48.967Z,83.60
2017-09-23T21:46:16.662Z,83.70
2017-09-23T21:48:44.473Z,83.40
2017-09-23T21:51:12.210Z,82.20
2017-09-23T21:53:39.871Z,82.00
2017-09-23T21:56:07.548Z,82.40
2017-09-23T21:58:35.255Z,82.50
2017-09-23T22:01:02.902Z,82.90
2017-09-23T22:03:30.562Z,83.20
2017-09-23T22:05:58.287Z,83.70
2017-09-23T22:08:25.938Z,83.70
2017-09-23T22:10:53.624Z,83.60
2017-09-23T22:13:21.326Z,83.00
2017-09-23T22:15:48.975Z,82.30
2017-09-23T22:18:16.970Z,82.80
2017-09-23T22:20:44.716Z,83.00
2017-09-23T22:23:12.463Z,83.10
2017-09-23T22:25:40.119Z,83.10
2017-09-23T22:28:07.856Z,83.00
2017-09-23T22:30:35.604Z,82.90
2017-09-23T22:33:03.349Z,83.10
2017-09-23T22:35:31.067Z,83.10
2017-09-23T22:37:58.742Z,83.20
2017-09-23T22:40:26.411Z,83.80
2017-09-23T22:42:54.502Z,83.30
2017-09-23T22:45:22.191Z,83.30
2017-09-23T22:47:49.938Z,83.00
2017-09-23T22:50:17.685Z,83.10
2017-09-23T22:52:45.415Z,83.30
2017-09-23T22:55:13.076Z,83.60
2017-09-23T22:57:40.792Z,83.40
2017-09-23T23:00:08.570Z,83.50
2017-09-23T23:02:36.318Z,83.70
2017-09-23T23:05:04.036Z,84.00
2017-09-23T23:07:31.714Z,83.80
2017-09-23T23:09:59.457Z,83.70
2017-09-23T23:12:27.203Z,83.40
2017-09-23T23:14:54.954Z,83.30
2017-09-23T23:17:22.701Z,83.10
2017-09-23T23:19:50.449Z,83.20
2017-09-23T23:22:18.196Z,83.50
2017-09-23T23:24:45.944Z,83.40
2017-09-23T23:27:13.663Z,83.20
2017-09-23T23:29:41.335Z,83.70
2017-09-23T23:32:09.082Z,83.70
2017-09-23T23:34:36.811Z,84.00
2017-09-23T23:37:04.460Z,84.10
2017-09-23T23:39:32.111Z,84.40
2017-09-23T23:41:59.967Z,84.70
2017-09-23T23:44:27.715Z,83.70
2017-09-23T23:46:55.772Z,84.20
2017-09-23T23:49:23.521Z,84.90
2017-09-23T23:51:51.267Z,85.60
2017-09-23T23:54:19.013Z,85.40
2017-09-23T23:56:46.763Z,85.20
2017-09-23T23:59:14.513Z,85.00
